Skopje-Petrovec, Macedonia

03:49 AM CEST on prill 25, 2015 (GMT +0200)
Skopje | | Change Station
CLOSE
Current Station
Airport
Location: Skopje-Petrovec,
Elevation: 784 ft
Nearby Weather Stations

Elev 784 ft 41.97 °N, 21.65 °E | Updated 19 minutes ago

Overcast
mot i vrenjtur
54 °F
Feels Like 54 °F
N
2
Era e paqendrueshme Era from JL

Sot
High -- | Low -- °F
--% Chance of Precip.
Yesterday
High -- | Low -- °F
Precip. -- ne
5:38 AM 7:25 PM
Waxing Crescent, 41% visible
Presioni 30.09 ne
Visioni 6.2 milje
Clouds Few 7600 ft
mot i vrenjtur 10000 ft
Pika E Veses 48 °F
Lageshtira E ajrit 82%
Rainfall 0.00 ne
Snow Depth Not available.
UV 0 out of 12
Pollen Not available.
Air Quality Not available.
Flu Activity Not available.
METAR LWSK 250130Z 13002KT 9999 FEW076 OVC100 12/09 Q1019 NOSIG

More Conditions Fewer Conditions

Presioni 30.09 ne
Visioni 6.2 milje
Clouds Few 7600 ft
mot i vrenjtur 10000 ft
Pika E Veses 48 °F
Lageshtira E ajrit 82%
Rainfall 0.00 ne
Snow Depth Not available.
UV 0 out of 12
Pollen Not available.
Air Quality Not available.
Flu Activity Not available.
METAR LWSK 250130Z 13002KT 9999 FEW076 OVC100 12/09 Q1019 NOSIG

More Conditions Fewer Conditions

10-Day Weather Forecast

Almanac

Astronomy

Apr. 25, 2015 Rise Set
Actual Time
Civil Twilight
Nautical Twilight
Astronomical Twilight
Moon
Length Of Visible Light
Length of Day
Tomorrow will be .
, % of the Moon is Illuminated

Today's Extremes

Country Highs Country Lows

Community

WunderPhotos

Upload Photos

1,816,554 photos uploaded!

WunderBlogs® & News

Nearby

Air Quality

  Air Quality AQ Index Pollutant
Not available.

Snow Depth

Station Depth Elevation

Earthquake Activity

City Distance Mag. Time & Date
Minimum magnitude displayed is 2.5.

Coastal Water Temperatures

Vend Temperatura

Stations

Nearby Weather Stations

Station Location Temp Ftohtesia E erses Pika E Veses Lageshtira E ajrit Era Precip. Elev te freskuara(Te Dhenat) Type